createdAt,value
2019-03-20T00:02:05.936Z,101628.73
2019-03-20T00:04:35.203Z,101625.88
2019-03-20T00:07:04.467Z,101625.56
2019-03-20T00:09:34.172Z,101623.73
2019-03-20T00:12:03.451Z,101631.41
2019-03-20T00:14:32.735Z,101635.05
2019-03-20T00:17:04.019Z,101637.88
2019-03-20T00:19:33.607Z,101637.52
2019-03-20T00:22:03.152Z,101638.66
2019-03-20T00:24:32.467Z,101638.48
2019-03-20T00:27:01.767Z,101639.64
2019-03-20T00:29:31.042Z,101631.78
2019-03-20T00:32:00.399Z,101628.92
2019-03-20T00:34:29.706Z,101634.63
2019-03-20T00:36:59.297Z,101635.10
2019-03-20T00:39:28.615Z,101635.77
2019-03-20T00:41:58.171Z,101636.07
2019-03-20T00:44:27.757Z,101633.09
2019-03-20T00:46:57.006Z,101644.11
2019-03-20T00:49:26.322Z,101646.13
2019-03-20T00:51:55.567Z,101638.08
2019-03-20T00:54:25.154Z,101626.55
2019-03-20T00:56:54.780Z,101633.21
2019-03-20T00:59:24.035Z,101633.70
2019-03-20T01:01:53.378Z,101643.05
2019-03-20T01:04:22.696Z,101638.84
2019-03-20T01:06:52.355Z,101639.69
2019-03-20T01:09:21.672Z,101637.32
2019-03-20T01:11:50.985Z,101645.88
2019-03-20T01:14:20.525Z,101646.80
2019-03-20T01:16:50.134Z,101648.58
2019-03-20T01:19:19.765Z,101649.47
2019-03-20T01:21:49.074Z,101646.61
2019-03-20T01:24:18.699Z,101648.12
2019-03-20T01:26:48.022Z,101633.55
2019-03-20T01:29:17.297Z,101641.19
2019-03-20T01:31:46.577Z,101649.84
2019-03-20T01:34:15.858Z,101645.12
2019-03-20T01:36:45.208Z,101645.16
2019-03-20T01:39:14.542Z,101648.50
2019-03-20T01:41:44.225Z,101650.45
2019-03-20T01:44:13.533Z,101649.77
2019-03-20T01:46:42.803Z,101651.23
2019-03-20T01:49:12.092Z,101646.69
2019-03-20T01:51:41.789Z,101649.00
2019-03-20T01:54:11.065Z,101650.33
2019-03-20T01:56:40.344Z,101645.06
2019-03-20T01:59:09.663Z,101655.39
2019-03-20T02:01:39.691Z,101652.36
2019-03-20T02:04:08.991Z,101647.61
2019-03-20T02:06:38.297Z,101650.28
2019-03-20T02:09:08.266Z,101629.09
2019-03-20T02:11:37.882Z,101641.23
2019-03-20T02:14:07.185Z,101643.54
2019-03-20T02:16:36.739Z,101645.01
2019-03-20T02:19:06.340Z,101650.19
2019-03-20T02:21:35.609Z,101649.92
2019-03-20T02:24:05.038Z,101652.20
2019-03-20T02:26:34.312Z,101652.17
2019-03-20T02:29:03.544Z,101657.25
2019-03-20T02:31:32.810Z,101661.26
2019-03-20T02:34:02.033Z,101659.30
2019-03-20T02:36:31.296Z,101664.45
2019-03-20T02:39:00.606Z,101661.78
2019-03-20T02:41:29.843Z,101652.08
2019-03-20T02:43:59.180Z,101654.58
2019-03-20T02:46:28.438Z,101663.70
2019-03-20T02:48:58.611Z,101673.00
2019-03-20T02:51:27.861Z,101667.70
2019-03-20T02:53:57.116Z,101663.47
2019-03-20T02:56:26.673Z,101666.66
2019-03-20T02:58:56.217Z,101664.64
2019-03-20T03:01:25.506Z,101667.59
2019-03-20T03:03:54.797Z,101668.48
2019-03-20T03:06:24.026Z,101668.48
2019-03-20T03:08:53.344Z,101670.66
2019-03-20T03:11:22.895Z,101669.94
2019-03-20T03:13:52.278Z,101680.06
2019-03-20T03:16:21.534Z,101670.00
2019-03-20T03:18:51.111Z,101671.45
2019-03-20T03:21:20.293Z,101672.17
2019-03-20T03:23:49.605Z,101667.48
2019-03-20T03:26:19.135Z,101673.02
2019-03-20T03:28:48.393Z,101664.33
2019-03-20T03:31:17.655Z,101665.47
2019-03-20T03:33:46.858Z,101672.17
2019-03-20T03:36:21.577Z,101667.78
2019-03-20T03:38:47.433Z,101672.66
2019-03-20T03:41:16.695Z,101668.25
2019-03-20T03:43:45.943Z,101667.92
2019-03-20T03:46:15.170Z,101664.93
2019-03-20T03:48:44.470Z,101661.94
2019-03-20T03:51:13.706Z,101656.00
2019-03-20T03:53:42.971Z,101673.67
2019-03-20T03:56:12.595Z,101678.36
2019-03-20T03:58:41.921Z,101678.20
2019-03-20T04:01:11.210Z,101678.20
2019-03-20T04:03:40.734Z,101682.89
2019-03-20T04:06:09.993Z,101693.36
2019-03-20T04:08:39.298Z,101693.36
2019-03-20T04:11:08.512Z,101693.69
2019-03-20T04:13:37.775Z,101702.38
2019-03-20T04:16:07.669Z,101707.47
2019-03-20T04:18:36.978Z,101704.08
2019-03-20T04:21:06.248Z,101704.36
2019-03-20T04:23:35.497Z,101702.18
2019-03-20T04:26:04.812Z,101712.97
2019-03-20T04:28:34.101Z,101705.33
2019-03-20T04:31:03.588Z,101713.78
2019-03-20T04:33:32.845Z,101712.05
2019-03-20T04:36:02.450Z,101712.20
2019-03-20T04:38:31.723Z,101711.36
2019-03-20T04:41:00.955Z,101714.75
2019-03-20T04:43:30.183Z,101720.17
2019-03-20T04:45:59.508Z,101724.16
2019-03-20T04:48:28.757Z,101728.53
2019-03-20T04:50:58.014Z,101727.88
2019-03-20T04:53:27.504Z,101728.41
2019-03-20T04:55:56.819Z,101723.20
2019-03-20T04:58:26.069Z,101728.69
2019-03-20T05:00:55.616Z,101730.39
2019-03-20T05:03:24.893Z,101735.16
2019-03-20T05:05:54.220Z,101734.92
2019-03-20T05:08:23.424Z,101733.51
2019-03-20T05:10:52.702Z,101736.45
2019-03-20T05:13:21.982Z,101734.72
2019-03-20T05:15:51.332Z,101729.79
2019-03-20T05:18:20.807Z,101737.15
2019-03-20T05:20:50.079Z,101727.08
2019-03-20T05:23:19.305Z,101726.03
2019-03-20T05:25:48.576Z,101724.29
2019-03-20T05:28:17.822Z,101722.63
2019-03-20T05:30:47.348Z,101724.16
2019-03-20T05:33:16.848Z,101723.64
2019-03-20T05:35:46.516Z,101724.65
2019-03-20T05:38:15.721Z,101727.97
2019-03-20T05:40:44.998Z,101730.27
2019-03-20T05:43:14.237Z,101731.37
2019-03-20T05:45:43.497Z,101738.87
2019-03-20T05:48:12.710Z,101737.44
2019-03-20T05:50:42.245Z,101737.51
2019-03-20T05:53:11.468Z,101735.57
2019-03-20T05:55:40.716Z,101743.29
2019-03-20T05:58:09.971Z,101745.64
2019-03-20T06:00:39.264Z,101754.45
2019-03-20T06:03:08.536Z,101760.19
2019-03-20T06:05:37.797Z,101764.23
2019-03-20T06:08:07.022Z,101764.59
2019-03-20T06:10:36.338Z,101758.03
2019-03-20T06:13:05.583Z,101760.45
2019-03-20T06:15:35.146Z,101754.09
2019-03-20T06:18:04.410Z,101763.19
2019-03-20T06:20:34.042Z,101757.62
2019-03-20T06:23:04.647Z,101767.72
2019-03-20T06:25:33.917Z,101769.45
2019-03-20T06:28:03.185Z,101772.70
2019-03-20T06:30:32.476Z,101773.63
2019-03-20T06:33:02.103Z,101776.91
2019-03-20T06:35:31.385Z,101778.52
2019-03-20T06:38:00.874Z,101785.14
2019-03-20T06:40:30.174Z,101786.71
2019-03-20T06:42:59.779Z,101789.53
2019-03-20T06:45:29.406Z,101794.70
2019-03-20T06:47:58.773Z,101801.85
2019-03-20T06:50:28.024Z,101802.54
2019-03-20T06:52:57.571Z,101806.49
2019-03-20T06:55:27.060Z,101810.06
2019-03-20T06:57:56.358Z,101810.43
2019-03-20T07:01:07.119Z,101808.42
2019-03-20T07:04:14.397Z,101814.41
2019-03-20T07:06:50.948Z,101807.55
2019-03-20T07:09:41.316Z,101797.63
2019-03-20T07:12:11.002Z,101785.78
2019-03-20T07:14:41.140Z,101777.23
2019-03-20T07:17:10.407Z,101765.20
2019-03-20T07:19:39.652Z,101762.73
2019-03-20T07:22:08.930Z,101743.11
2019-03-20T07:24:38.202Z,101739.30
2019-03-20T07:27:07.485Z,101732.70
2019-03-20T07:29:36.727Z,101719.28
2019-03-20T07:32:06.175Z,101713.34
2019-03-20T07:34:35.777Z,101714.55
2019-03-20T07:37:05.086Z,101713.09
2019-03-20T07:39:34.359Z,101713.00
2019-03-20T07:42:03.614Z,101714.99
2019-03-20T07:44:32.954Z,101717.96
2019-03-20T07:47:02.213Z,101722.00
2019-03-20T07:49:31.707Z,101726.19
2019-03-20T07:52:00.967Z,101720.86
2019-03-20T07:54:30.213Z,101720.73
2019-03-20T07:56:59.431Z,101732.14
2019-03-20T07:59:28.687Z,101728.45
2019-03-20T08:01:58.217Z,101736.38
2019-03-20T08:04:27.837Z,101730.52
2019-03-20T08:06:57.428Z,101734.78
2019-03-20T08:09:26.726Z,101736.17
2019-03-20T08:11:55.996Z,101731.08
2019-03-20T08:14:25.262Z,101732.94
2019-03-20T08:16:54.611Z,101734.00
2019-03-20T08:19:23.911Z,101732.84
2019-03-20T08:21:53.169Z,101737.05
2019-03-20T08:24:22.547Z,101742.59
2019-03-20T08:26:51.902Z,101747.90
2019-03-20T08:29:21.535Z,101751.45
2019-03-20T08:31:51.169Z,101753.53
2019-03-20T08:34:20.466Z,101729.78
2019-03-20T08:36:50.687Z,101749.46
2019-03-20T08:39:20.019Z,101751.31
2019-03-20T08:41:49.295Z,101753.73
2019-03-20T08:44:18.583Z,101759.16
2019-03-20T08:46:47.858Z,101756.43
2019-03-20T08:49:17.160Z,101757.27
2019-03-20T08:51:46.416Z,101757.37
2019-03-20T08:54:15.691Z,101761.09
2019-03-20T08:56:44.994Z,101760.44
2019-03-20T08:59:14.305Z,101762.96
2019-03-20T09:01:43.575Z,101761.34
2019-03-20T09:04:31.899Z,101769.45
2019-03-20T09:07:01.510Z,101768.20
2019-03-20T09:09:31.393Z,101773.81
2019-03-20T09:12:00.629Z,101781.69
2019-03-20T09:14:29.925Z,101794.25
2019-03-20T09:16:59.215Z,101810.59
2019-03-20T09:19:28.951Z,101810.83
2019-03-20T09:21:58.293Z,101821.81
2019-03-20T09:24:27.613Z,101838.52
2019-03-20T09:26:56.934Z,101843.73
2019-03-20T09:29:35.579Z,101865.39
2019-03-20T09:31:57.988Z,101872.56
2019-03-20T09:34:27.322Z,101881.66
2019-03-20T09:36:56.619Z,101889.02
2019-03-20T09:39:25.929Z,101892.21
2019-03-20T09:41:55.240Z,101896.00
2019-03-20T09:44:25.007Z,101889.30
2019-03-20T09:46:54.366Z,101893.35
2019-03-20T09:49:23.700Z,101899.86
2019-03-20T09:51:53.056Z,101914.66
2019-03-20T09:54:22.777Z,101909.45
2019-03-20T09:56:52.401Z,101907.86
2019-03-20T09:59:22.006Z,101912.95
2019-03-20T10:01:51.261Z,101916.20
2019-03-20T10:04:20.851Z,101909.50
2019-03-20T10:06:50.099Z,101905.63
2019-03-20T10:09:19.327Z,101904.97
2019-03-20T10:11:48.851Z,101904.20
2019-03-20T10:14:18.185Z,101903.48
2019-03-20T10:16:47.425Z,101900.33
2019-03-20T10:19:16.663Z,101900.12
2019-03-20T10:21:45.945Z,101905.94
2019-03-20T10:24:15.433Z,101904.72
2019-03-20T10:26:44.709Z,101903.20
2019-03-20T10:29:13.963Z,101899.09
2019-03-20T10:31:43.217Z,101900.41
2019-03-20T10:34:12.479Z,101903.61
2019-03-20T10:36:41.756Z,101905.14
2019-03-20T10:39:11.422Z,101908.83
2019-03-20T10:41:40.706Z,101915.98
2019-03-20T10:44:10.022Z,101916.48
2019-03-20T10:46:39.275Z,101909.28
2019-03-20T10:49:08.556Z,101904.58
2019-03-20T10:51:58.550Z,101915.45
2019-03-20T10:54:27.796Z,101916.17
2019-03-20T10:56:57.058Z,101913.72
2019-03-20T10:59:26.712Z,101918.70
2019-03-20T11:01:56.312Z,101922.64
2019-03-20T11:04:25.815Z,101925.23
2019-03-20T11:06:55.141Z,101918.87
2019-03-20T11:09:24.684Z,101920.90
2019-03-20T11:11:54.329Z,101918.20
2019-03-20T11:14:23.603Z,101915.33
2019-03-20T11:16:52.888Z,101915.72
2019-03-20T11:19:22.203Z,101910.93
2019-03-20T11:21:51.530Z,101916.09
2019-03-20T11:24:20.789Z,101915.51
2019-03-20T11:26:50.494Z,101916.40
2019-03-20T11:29:21.817Z,101915.44
2019-03-20T11:31:50.711Z,101913.11
2019-03-20T11:34:20.002Z,101911.84
2019-03-20T11:36:49.335Z,101907.27
2019-03-20T11:39:29.265Z,101910.27
2019-03-20T11:41:49.606Z,101913.27
2019-03-20T11:44:18.888Z,101910.70
2019-03-20T11:46:48.109Z,101908.92
2019-03-20T11:49:17.381Z,101907.91
2019-03-20T11:51:47.076Z,101917.90
2019-03-20T11:54:16.601Z,101908.64
2019-03-20T11:56:45.869Z,101914.02
2019-03-20T11:59:15.107Z,101911.45
2019-03-20T12:01:44.466Z,101913.08
2019-03-20T12:04:13.733Z,101915.55
2019-03-20T12:06:42.959Z,101911.72
2019-03-20T12:09:12.265Z,101912.23
2019-03-20T12:11:45.973Z,101910.41
2019-03-20T12:14:13.641Z,101907.63
2019-03-20T12:16:42.904Z,101914.81
2019-03-20T12:19:12.242Z,101907.70
2019-03-20T12:21:41.470Z,101906.05
2019-03-20T12:24:11.011Z,101905.64
2019-03-20T12:26:40.257Z,101902.88
2019-03-20T12:29:09.579Z,101897.11
2019-03-20T12:31:39.085Z,101890.86
2019-03-20T12:34:08.348Z,101899.00
2019-03-20T12:36:37.598Z,101894.73
2019-03-20T12:39:09.560Z,101888.55
2019-03-20T12:41:38.840Z,101888.01
2019-03-20T12:44:08.129Z,101895.02
2019-03-20T12:46:41.614Z,101897.20
2019-03-20T12:49:08.688Z,101894.15
2019-03-20T12:51:37.929Z,101879.78
2019-03-20T12:54:07.221Z,101891.34
2019-03-20T12:56:36.783Z,101897.13
2019-03-20T12:59:06.039Z,101890.86
2019-03-20T13:01:35.539Z,101890.27
2019-03-20T13:04:04.782Z,101894.71
2019-03-20T13:09:22.688Z,101892.53
2019-03-20T13:11:52.221Z,101901.39
2019-03-20T13:14:21.767Z,101907.48
2019-03-20T13:16:51.020Z,101903.44
2019-03-20T13:19:20.275Z,101902.61
2019-03-20T13:21:49.560Z,101898.12
2019-03-20T13:24:19.129Z,101895.79
2019-03-20T13:26:48.746Z,101891.72
2019-03-20T13:29:18.320Z,101890.97
2019-03-20T13:31:47.861Z,101900.36
2019-03-20T13:34:17.519Z,101899.02
2019-03-20T13:36:46.766Z,101898.63
2019-03-20T13:39:16.033Z,101890.39
2019-03-20T13:41:45.319Z,101899.64
2019-03-20T13:44:14.705Z,101899.64
2019-03-20T13:47:03.194Z,101901.91
2019-03-20T13:49:32.458Z,101904.26
2019-03-20T13:52:21.034Z,101879.78
2019-03-20T13:55:09.632Z,101879.78
2019-03-20T13:57:38.951Z,101882.63
2019-03-20T14:00:30.380Z,101886.30
2019-03-20T14:02:59.670Z,101890.58
2019-03-20T14:05:29.272Z,101898.18
2019-03-20T14:08:01.077Z,101891.33
2019-03-20T14:10:30.643Z,101897.63
2019-03-20T14:12:59.887Z,101891.34
2019-03-20T14:15:29.135Z,101890.05
2019-03-20T14:17:58.381Z,101881.93
2019-03-20T14:20:27.636Z,101886.31
2019-03-20T14:22:57.214Z,101885.19
2019-03-20T14:25:26.475Z,101883.94
2019-03-20T14:27:55.755Z,101887.30
2019-03-20T14:30:26.221Z,101884.55
2019-03-20T14:32:55.486Z,101887.68
2019-03-20T14:35:43.806Z,101890.38
2019-03-20T14:38:13.339Z,101889.45
2019-03-20T14:40:42.859Z,101880.85
2019-03-20T14:43:12.516Z,101895.67
2019-03-20T14:45:41.751Z,101895.66
2019-03-20T14:48:11.365Z,101891.50
2019-03-20T14:50:40.652Z,101883.04
2019-03-20T14:53:10.185Z,101888.92
2019-03-20T14:55:39.416Z,101889.84
2019-03-20T14:58:09.494Z,101889.69
2019-03-20T15:00:39.319Z,101885.92
2019-03-20T15:03:08.617Z,101893.50
2019-03-20T15:05:38.902Z,101890.41
2019-03-20T15:08:08.339Z,101890.23
2019-03-20T15:10:45.925Z,101884.89
2019-03-20T15:13:11.911Z,101881.05
2019-03-20T15:16:09.785Z,101880.45
2019-03-20T15:24:47.653Z,101887.48
2019-03-20T15:27:17.299Z,101874.66
2019-03-20T15:29:47.419Z,101875.43
2019-03-20T15:32:16.768Z,101874.07
2019-03-20T15:35:05.476Z,101871.17
2019-03-20T15:37:37.490Z,101877.48
2019-03-20T15:40:12.761Z,101874.20
2019-03-20T15:42:42.131Z,101874.61
2019-03-20T15:45:12.659Z,101870.03
2019-03-20T15:47:42.028Z,101869.94
2019-03-20T15:50:12.853Z,101871.62
2019-03-20T15:52:42.463Z,101864.86
2019-03-20T15:55:14.334Z,101863.00
2019-03-20T15:57:44.169Z,101864.74
2019-03-20T16:00:15.941Z,101867.69
2019-03-20T16:02:45.395Z,101868.34
2019-03-20T16:05:14.958Z,101831.68
2019-03-20T16:07:44.300Z,101863.11
2019-03-20T16:10:32.672Z,101865.20
2019-03-20T16:13:02.393Z,101862.95
2019-03-20T16:15:32.022Z,101867.96
2019-03-20T16:18:01.573Z,101861.91
2019-03-20T16:20:30.810Z,101862.44
2019-03-20T16:23:00.755Z,101866.97
2019-03-20T16:25:30.078Z,101867.62
2019-03-20T16:27:59.630Z,101871.84
2019-03-20T16:30:28.902Z,101868.00
2019-03-20T16:32:58.239Z,101862.69
2019-03-20T16:35:27.455Z,101865.86
2019-03-20T16:37:57.105Z,101871.38
2019-03-20T16:40:26.406Z,101863.52
2019-03-20T16:42:55.711Z,101869.70
2019-03-20T16:45:26.945Z,101859.88
2019-03-20T16:47:56.227Z,101856.41
2019-03-20T16:50:44.512Z,101862.91
2019-03-20T16:53:14.256Z,101862.91
2019-03-20T16:55:43.563Z,101864.09
2019-03-20T16:58:12.888Z,101870.02
2019-03-20T17:00:42.121Z,101863.84
2019-03-20T17:03:11.656Z,101861.64
2019-03-20T17:05:40.887Z,101857.77
2019-03-20T17:10:45.439Z,101862.88
2019-03-20T17:13:15.052Z,101864.13
2019-03-20T17:15:44.581Z,101872.56
2019-03-20T17:18:13.992Z,101868.23
2019-03-20T17:20:43.292Z,101881.37
2019-03-20T17:23:12.589Z,101883.31
2019-03-20T17:26:02.290Z,101879.86
2019-03-20T17:28:43.058Z,101881.05
2019-03-20T17:31:12.321Z,101883.66
2019-03-20T17:33:41.647Z,101876.35
2019-03-20T17:36:10.852Z,101873.50
2019-03-20T17:38:40.114Z,101873.75
2019-03-20T17:41:09.408Z,101870.08
2019-03-20T17:43:39.347Z,101861.09
2019-03-20T17:46:08.752Z,101851.56
2019-03-20T17:48:37.985Z,101846.73
2019-03-20T17:51:07.506Z,101842.99
2019-03-20T17:53:37.362Z,101844.80
2019-03-20T17:56:06.634Z,101829.50
2019-03-20T17:58:35.889Z,101822.42
2019-03-20T18:01:05.337Z,101817.13
2019-03-20T18:03:34.607Z,101811.98
2019-03-20T18:06:03.980Z,101810.55
2019-03-20T18:08:33.240Z,101809.52
2019-03-20T18:11:02.500Z,101811.17
2019-03-20T18:13:32.212Z,101802.02
2019-03-20T18:16:02.605Z,101803.97
2019-03-20T18:18:32.316Z,101803.33
2019-03-20T18:21:01.560Z,101801.78
2019-03-20T18:23:30.859Z,101803.02
2019-03-20T18:26:19.252Z,101798.73
2019-03-20T18:28:48.548Z,101798.41
2019-03-20T18:31:18.244Z,101797.09
2019-03-20T18:33:48.134Z,101788.34
2019-03-20T18:36:22.369Z,101790.40
2019-03-20T18:38:56.047Z,101791.75
2019-03-20T18:41:57.206Z,101803.42
2019-03-20T18:44:05.175Z,101803.40
2019-03-20T18:46:35.490Z,101802.91
2019-03-20T18:49:07.547Z,101805.34
2019-03-20T18:51:37.053Z,101803.43
2019-03-20T18:54:06.735Z,101800.24
2019-03-20T18:56:36.110Z,101804.88
2019-03-20T18:59:05.540Z,101808.77
2019-03-20T19:01:34.829Z,101802.45
2019-03-20T19:04:04.105Z,101804.48
2019-03-20T19:06:33.841Z,101796.20
2019-03-20T19:09:03.625Z,101803.47
2019-03-20T19:11:33.370Z,101799.42
2019-03-20T19:14:03.319Z,101802.59
2019-03-20T19:16:32.994Z,101805.55
2019-03-20T19:19:02.225Z,101800.48
2019-03-20T19:21:32.262Z,101806.04
2019-03-20T19:24:01.532Z,101810.59
2019-03-20T19:26:50.045Z,101813.09
2019-03-20T19:29:19.355Z,101813.78
2019-03-20T19:31:48.728Z,101810.16
2019-03-20T19:34:20.907Z,101820.86
2019-03-20T19:39:30.220Z,101815.50
2019-03-20T19:42:02.582Z,101807.84
2019-03-20T19:44:32.083Z,101818.06
2019-03-20T19:47:01.555Z,101821.95
2019-03-20T19:52:21.945Z,101814.88
2019-03-20T19:54:51.584Z,101819.67
2019-03-20T19:57:20.860Z,101785.44
2019-03-20T19:59:50.099Z,101821.59
2019-03-20T20:02:26.444Z,101822.41
2019-03-20T20:04:55.694Z,101823.22
2019-03-20T20:07:24.976Z,101819.61
2019-03-20T20:09:54.586Z,101824.97
2019-03-20T20:12:31.135Z,101828.72
2019-03-20T20:14:54.888Z,101830.66
2019-03-20T20:17:24.835Z,101838.47
2019-03-20T20:19:54.848Z,101839.41
2019-03-20T20:22:24.219Z,101848.09
2019-03-20T20:24:53.466Z,101844.27
2019-03-20T20:27:22.886Z,101843.16
2019-03-20T20:29:52.561Z,101841.91
2019-03-20T20:32:22.121Z,101845.58
2019-03-20T20:34:51.574Z,101851.31
2019-03-20T20:37:21.176Z,101857.78
2019-03-20T20:39:50.671Z,101869.45
2019-03-20T20:42:20.226Z,101862.27
2019-03-20T20:44:49.868Z,101869.52
2019-03-20T20:47:19.079Z,101868.70
2019-03-20T20:49:48.595Z,101862.58
2019-03-20T20:52:19.596Z,101866.59
2019-03-20T20:54:48.889Z,101869.52
2019-03-20T20:57:18.393Z,101867.37
2019-03-20T20:59:47.636Z,101860.95
2019-03-20T21:02:17.227Z,101864.22
2019-03-20T21:04:46.738Z,101874.91
2019-03-20T21:07:16.025Z,101868.90
2019-03-20T21:09:45.587Z,101873.50
2019-03-20T21:12:15.139Z,101869.63
2019-03-20T21:14:44.433Z,101862.91
2019-03-20T21:17:19.349Z,101859.07
2019-03-20T21:19:49.396Z,101866.53
2019-03-20T21:22:56.732Z,101863.50
2019-03-20T21:25:26.501Z,101862.47
2019-03-20T21:28:34.079Z,101863.19
2019-03-20T21:31:41.669Z,101865.47
2019-03-20T21:34:49.235Z,101860.29
2019-03-20T21:37:56.503Z,101866.86
2019-03-20T21:40:26.305Z,101868.81
2019-03-20T21:43:33.562Z,101869.36
2019-03-20T21:46:36.143Z,101869.40
2019-03-20T21:49:06.051Z,101878.61
2019-03-20T21:51:35.899Z,101880.53
2019-03-20T21:54:43.919Z,101888.98
2019-03-20T21:57:52.212Z,101886.30
2019-03-20T22:00:59.608Z,101884.33
2019-03-20T22:03:29.377Z,101884.02
2019-03-20T22:06:36.738Z,101892.13
2019-03-20T22:09:29.589Z,101898.39
2019-03-20T22:12:29.039Z,101897.88
2019-03-20T22:15:12.863Z,101898.94
2019-03-20T22:18:10.598Z,101900.28
2019-03-20T22:21:10.240Z,101907.02
2019-03-20T22:24:17.806Z,101900.95
2019-03-20T22:27:11.453Z,101909.92
2019-03-20T22:29:41.284Z,101897.70
2019-03-20T22:32:48.581Z,101896.38
2019-03-20T22:35:56.137Z,101895.09
2019-03-20T22:39:03.578Z,101898.27
2019-03-20T22:42:10.855Z,101890.73
2019-03-20T22:44:48.112Z,101891.44
2019-03-20T22:47:55.390Z,101896.28
2019-03-20T22:51:02.689Z,101897.49
2019-03-20T22:54:09.995Z,101894.14
2019-03-20T22:57:17.301Z,101895.78
2019-03-20T22:59:47.338Z,101900.19
2019-03-20T23:02:41.818Z,101901.05
2019-03-20T23:05:11.637Z,101901.37
2019-03-20T23:07:41.421Z,101898.87
2019-03-20T23:10:13.327Z,101906.95
2019-03-20T23:13:03.314Z,101904.76
2019-03-20T23:15:33.228Z,101903.75
2019-03-20T23:18:03.020Z,101906.80
2019-03-20T23:20:33.200Z,101903.96
2019-03-20T23:23:03.281Z,101900.63
2019-03-20T23:25:33.048Z,101905.80
2019-03-20T23:28:03.112Z,101905.97
2019-03-20T23:30:32.958Z,101912.85
2019-03-20T23:33:02.796Z,101906.99
2019-03-20T23:35:32.558Z,101909.36
2019-03-20T23:38:02.793Z,101905.37
2019-03-20T23:40:32.591Z,101905.01
2019-03-20T23:43:02.526Z,101907.70
2019-03-20T23:45:32.318Z,101905.34
2019-03-20T23:48:22.963Z,101906.69
2019-03-20T23:50:55.424Z,101899.97
2019-03-20T23:53:25.538Z,101901.99
2019-03-20T23:55:55.384Z,101895.78
2019-03-20T23:58:25.178Z,101903.31
